Time;durP1;ratioP1;P1;durP2;ratioP2;P2;SDS_P1;SDS_P2;PMS_P1;PMS_P2;Temp;Humidity;BMP_temperature;BMP_pressure;BME280_temperature;BME280_humidity;BME280_pressure;Samples;Min_cycle;Max_cycle;Signal;HPM_P1;HPM_P2
2021/10/04 00:01:04;;;;;;;2.60;0.40;;;14.70;99.90;;;;;;5033182;28;20104;-52
2021/10/04 00:03:29;;;;;;;1.63;0.50;;;14.80;99.90;;;;;;5032283;28;20053;-48
2021/10/04 00:05:55;;;;;;;0.80;0.57;;;14.80;99.90;;;;;;5032253;28;20045;-50
2021/10/04 00:08:20;;;;;;;0.45;0.45;;;14.80;99.90;;;;;;5031674;28;20390;-48
2021/10/04 00:10:46;;;;;;;0.70;0.50;;;14.80;99.90;;;;;;5032264;28;20025;-55
2021/10/04 00:13:12;;;;;;;0.50;0.50;;;14.80;99.90;;;;;;5032098;28;20409;-56
2021/10/04 00:15:37;;;;;;;0.52;0.50;;;14.70;99.90;;;;;;5032009;28;20029;-48
2021/10/04 00:18:04;;;;;;;2.05;0.50;;;14.70;99.90;;;;;;5030722;28;20060;-47
2021/10/04 00:20:29;;;;;;;3.60;0.55;;;14.60;99.90;;;;;;5032058;28;20029;-52
2021/10/04 00:22:58;;;;;;;0.45;0.45;;;14.60;99.90;;;;;;5032014;28;20018;-49
2021/10/04 00:25:23;;;;;;;0.60;0.60;;;14.60;99.90;;;;;;5031767;28;20021;-51
2021/10/04 00:27:49;;;;;;;0.73;0.70;;;14.60;99.90;;;;;;5031151;28;20026;-49
2021/10/04 00:30:16;;;;;;;0.65;0.65;;;14.60;99.90;;;;;;5030612;28;20107;-53
2021/10/04 00:32:45;;;;;;;0.60;0.60;;;14.60;99.90;;;;;;5031934;28;20474;-52
2021/10/04 00:35:13;;;;;;;0.50;0.50;;;14.50;99.90;;;;;;5031730;28;20033;-50
2021/10/04 00:37:39;;;;;;;6.28;0.98;;;14.50;99.90;;;;;;5029783;28;20398;-52
2021/10/04 00:40:07;;;;;;;0.82;0.60;;;14.60;99.90;;;;;;5031786;28;20025;-51
2021/10/04 00:42:33;;;;;;;2.25;0.60;;;14.60;99.90;;;;;;5031477;28;20121;-53
2021/10/04 00:44:58;;;;;;;1.75;0.70;;;14.60;99.90;;;;;;5031819;28;20120;-49
2021/10/04 00:47:25;;;;;;;0.75;0.75;;;14.50;99.90;;;;;;5031214;28;20026;-49
2021/10/04 00:49:51;;;;;;;0.70;0.70;;;14.50;99.90;;;;;;5031379;28;20030;-52
2021/10/04 00:52:16;;;;;;;0.60;0.60;;;14.50;99.90;;;;;;5031496;28;20562;-48
2021/10/04 00:54:42;;;;;;;1.00;0.70;;;14.50;99.90;;;;;;5030482;28;20099;-50
2021/10/04 00:57:08;;;;;;;0.80;0.80;;;14.50;99.90;;;;;;5031369;28;20061;-49
2021/10/04 00:59:34;;;;;;;1.33;0.93;;;14.40;99.90;;;;;;5030635;28;20398;-52
2021/10/04 01:02:00;;;;;;;0.70;0.70;;;14.40;99.90;;;;;;5031142;28;20030;-48
2021/10/04 01:04:26;;;;;;;0.80;0.80;;;14.30;99.90;;;;;;5031165;28;20395;-51
2021/10/04 01:06:52;;;;;;;1.85;0.80;;;14.30;99.90;;;;;;5031414;28;20033;-47
2021/10/04 01:09:18;;;;;;;1.35;0.80;;;14.40;99.90;;;;;;5030488;28;20025;-52
2021/10/04 01:11:44;;;;;;;0.90;0.90;;;14.30;99.90;;;;;;5030886;28;20159;-51
2021/10/04 01:14:10;;;;;;;0.77;0.77;;;14.30;99.90;;;;;;5031004;28;20025;-51
2021/10/04 01:16:35;;;;;;;0.90;0.90;;;14.30;99.90;;;;;;5031009;28;20032;-50
2021/10/04 01:19:01;;;;;;;0.80;0.80;;;14.30;99.90;;;;;;5029050;28;20057;-52
2021/10/04 01:21:26;;;;;;;0.98;0.98;;;14.30;99.90;;;;;;5030906;28;20071;-49
2021/10/04 01:23:52;;;;;;;0.70;0.70;;;14.20;99.90;;;;;;5046128;28;20436;-46
2021/10/04 01:26:18;;;;;;;1.45;0.93;;;14.20;99.90;;;;;;5030992;28;20028;-49
2021/10/04 01:28:43;;;;;;;0.75;0.75;;;14.20;99.90;;;;;;5029732;28;20076;-49
2021/10/04 01:31:09;;;;;;;2.80;1.00;;;14.20;99.90;;;;;;5030763;28;20398;-47
2021/10/04 01:33:34;;;;;;;1.35;1.10;;;14.30;99.90;;;;;;5030633;28;20033;-53
2021/10/04 01:36:00;;;;;;;1.17;1.17;;;14.20;99.90;;;;;;5030997;28;20025;-48
2021/10/04 01:38:25;;;;;;;4.00;1.27;;;14.20;99.90;;;;;;5030009;28;20033;-48
2021/10/04 01:40:51;;;;;;;2.05;1.55;;;14.20;99.90;;;;;;5030698;28;20041;-49
2021/10/04 01:43:16;;;;;;;1.25;1.15;;;14.30;99.90;;;;;;5030527;28;20437;-45
2021/10/04 01:45:42;;;;;;;1.65;1.05;;;14.30;99.90;;;;;;5030275;28;20041;-47
2021/10/04 01:48:07;;;;;;;1.50;1.20;;;14.40;99.90;;;;;;5030093;28;20534;-50
2021/10/04 01:50:35;;;;;;;1.33;1.33;;;14.30;99.90;;;;;;5030598;28;20061;-51
2021/10/04 01:53:01;;;;;;;1.35;1.35;;;14.30;99.90;;;;;;5030514;28;20033;-51
2021/10/04 01:55:27;;;;;;;1.35;1.27;;;14.30;99.90;;;;;;5029506;28;20399;-50
2021/10/04 01:57:52;;;;;;;2.03;1.65;;;14.20;99.90;;;;;;5029769;28;20037;-48
2021/10/04 02:00:20;;;;;;;1.63;1.52;;;14.20;99.90;;;;;;5030489;28;20025;-50
2021/10/04 02:02:50;;;;;;;1.50;1.50;;;14.20;99.90;;;;;;5030584;28;20075;-51
2021/10/04 02:05:16;;;;;;;1.83;1.73;;;14.20;99.90;;;;;;5030772;28;20070;-53
2021/10/04 02:07:41;;;;;;;1.80;1.70;;;14.20;99.90;;;;;;5029935;28;20143;-50
2021/10/04 02:10:13;;;;;;;1.98;1.75;;;14.20;99.90;;;;;;5030466;28;20298;-49
2021/10/04 02:12:39;;;;;;;1.83;1.73;;;14.20;99.90;;;;;;5030358;28;20466;-48
2021/10/04 02:15:06;;;;;;;2.30;1.77;;;14.20;99.90;;;;;;5030200;28;20025;-47
2021/10/04 02:17:33;;;;;;;2.03;1.83;;;14.20;99.90;;;;;;5028269;28;20124;-50
2021/10/04 02:19:58;;;;;;;3.53;1.98;;;14.10;99.90;;;;;;5030394;28;20026;-49
2021/10/04 02:22:24;;;;;;;1.52;1.42;;;14.10;99.90;;;;;;5030257;28;20030;-50
2021/10/04 02:24:50;;;;;;;1.80;1.70;;;14.10;99.90;;;;;;5030130;28;20021;-50
2021/10/04 02:27:16;;;;;;;1.70;1.65;;;14.20;99.90;;;;;;5029733;28;20071;-51
2021/10/04 02:29:41;;;;;;;2.10;1.88;;;14.20;99.90;;;;;;5029828;28;20501;-49
2021/10/04 02:32:07;;;;;;;2.03;1.92;;;14.10;99.90;;;;;;5030678;28;20021;-50
2021/10/04 02:34:34;;;;;;;2.08;1.98;;;14.20;99.90;;;;;;5030603;28;20025;-46
2021/10/04 02:37:00;;;;;;;2.63;2.42;;;14.20;99.90;;;;;;5030437;28;20506;-47
2021/10/04 02:39:26;;;;;;;2.05;1.95;;;14.20;99.90;;;;;;5029795;28;20068;-46
2021/10/04 02:41:51;;;;;;;4.53;2.80;;;14.10;99.90;;;;;;5033923;28;20394;-47
2021/10/04 02:44:17;;;;;;;3.45;2.38;;;14.00;99.90;;;;;;5034141;28;20025;-46
2021/10/04 02:46:43;;;;;;;4.47;3.38;;;14.00;99.90;;;;;;5034416;28;20061;-52
2021/10/04 02:49:09;;;;;;;2.63;2.42;;;14.00;99.90;;;;;;5033341;28;20030;-52
2021/10/04 02:51:34;;;;;;;3.72;2.30;;;14.00;99.90;;;;;;5033998;28;20079;-47
2021/10/04 02:54:00;;;;;;;2.97;2.22;;;14.00;99.90;;;;;;5032871;28;20033;-49
2021/10/04 02:56:26;;;;;;;3.08;2.20;;;14.00;99.90;;;;;;5033898;28;20037;-47
2021/10/04 02:58:51;;;;;;;1.95;1.83;;;13.90;99.90;;;;;;5033353;28;20041;-49
2021/10/04 03:01:17;;;;;;;3.00;2.28;;;13.90;99.90;;;;;;5033598;28;20022;-54
2021/10/04 03:03:42;;;;;;;3.15;2.25;;;13.90;99.90;;;;;;5033415;28;20040;-50
2021/10/04 03:06:08;;;;;;;3.47;2.03;;;13.90;99.90;;;;;;5033387;28;20022;-46
2021/10/04 03:08:33;;;;;;;2.33;2.13;;;13.90;99.90;;;;;;5032899;28;20394;-46
2021/10/04 03:10:59;;;;;;;2.35;2.00;;;14.00;99.90;;;;;;5033418;28;20493;-54
2021/10/04 03:13:24;;;;;;;2.58;1.90;;;14.00;99.90;;;;;;5033321;28;20040;-46
2021/10/04 03:15:50;;;;;;;2.10;1.80;;;14.00;99.90;;;;;;5033499;28;20631;-52
2021/10/04 03:18:15;;;;;;;2.20;1.95;;;14.00;99.90;;;;;;5032544;28;20080;-48
2021/10/04 03:20:41;;;;;;;3.83;1.70;;;14.00;99.90;;;;;;5033557;28;20034;-51
2021/10/04 03:23:07;;;;;;;2.20;1.70;;;14.00;99.90;;;;;;5033144;28;20100;-46
2021/10/04 03:25:33;;;;;;;1.98;1.88;;;14.00;99.90;;;;;;5032958;28;20021;-48
2021/10/04 03:27:58;;;;;;;2.10;2.00;;;14.10;99.90;;;;;;5032397;28;20033;-49
2021/10/04 03:30:24;;;;;;;1.92;1.83;;;14.10;99.90;;;;;;5033016;28;20053;-50
2021/10/04 03:32:50;;;;;;;3.33;3.03;;;14.10;99.90;;;;;;5033008;28;20525;-53
2021/10/04 03:35:16;;;;;;;2.50;2.30;;;14.00;99.90;;;;;;5031743;28;20033;-50
2021/10/04 03:37:42;;;;;;;1.88;1.77;;;14.10;99.90;;;;;;5032135;28;20034;-49
2021/10/04 03:40:08;;;;;;;2.67;2.47;;;14.10;99.90;;;;;;5032841;28;20031;-47
2021/10/04 03:42:34;;;;;;;3.80;3.20;;;14.00;99.90;;;;;;5032636;28;20398;-46
2021/10/04 03:44:59;;;;;;;4.05;3.60;;;13.90;99.90;;;;;;5033057;28;20033;-48
2021/10/04 03:47:25;;;;;;;4.72;3.72;;;13.90;99.90;;;;;;5032363;28;20040;-52
2021/10/04 03:49:50;;;;;;;3.28;3.08;;;13.80;99.90;;;;;;5032570;28;20052;-50
2021/10/04 03:52:16;;;;;;;3.58;3.03;;;13.70;99.90;;;;;;5032382;28;20018;-54
2021/10/04 03:54:41;;;;;;;4.10;3.20;;;13.70;99.90;;;;;;5031535;28;20028;-47
2021/10/04 03:57:07;;;;;;;3.97;3.67;;;13.70;99.90;;;;;;5032412;28;20022;-45
2021/10/04 03:59:33;;;;;;;4.07;3.22;;;13.80;99.90;;;;;;5031948;28;20029;-46
2021/10/04 04:01:58;;;;;;;5.03;3.22;;;13.80;99.90;;;;;;5031080;28;20338;-51
2021/10/04 04:04:24;;;;;;;3.85;3.55;;;13.80;99.90;;;;;;5032757;28;20036;-47
2021/10/04 04:06:49;;;;;;;3.50;3.20;;;13.90;99.90;;;;;;5033135;28;20030;-45
2021/10/04 04:09:15;;;;;;;3.88;3.03;;;13.90;99.90;;;;;;5047073;28;20032;-49
2021/10/04 04:11:41;;;;;;;3.60;3.28;;;13.80;99.90;;;;;;5030787;28;20030;-53
2021/10/04 04:14:07;;;;;;;4.03;3.25;;;13.90;99.90;;;;;;5032332;28;20037;-48
2021/10/04 04:16:32;;;;;;;5.90;3.08;;;13.80;99.90;;;;;;5032116;28;20028;-50
2021/10/04 04:18:58;;;;;;;3.97;3.53;;;13.90;99.90;;;;;;5031440;28;20409;-48
2021/10/04 04:21:23;;;;;;;3.97;3.65;;;13.90;99.90;;;;;;5032511;28;20085;-48
2021/10/04 04:23:49;;;;;;;3.00;2.80;;;13.90;99.90;;;;;;5031933;28;20383;-50
2021/10/04 04:26:14;;;;;;;5.90;3.45;;;13.90;99.90;;;;;;5030572;28;20471;-48
2021/10/04 04:28:40;;;;;;;3.65;3.33;;;13.90;99.90;;;;;;5031184;28;20079;-50
2021/10/04 04:31:05;;;;;;;3.78;3.38;;;13.80;99.90;;;;;;5031843;28;20379;-46
2021/10/04 04:33:31;;;;;;;3.90;3.03;;;13.80;99.90;;;;;;5031866;28;20039;-52
2021/10/04 04:35:57;;;;;;;3.58;3.05;;;13.80;99.90;;;;;;5031629;28;20032;-50
2021/10/04 04:38:22;;;;;;;4.30;3.88;;;13.70;99.90;;;;;;5031068;28;20486;-50
2021/10/04 04:40:48;;;;;;;3.72;3.13;;;13.70;99.90;;;;;;5031686;28;20536;-52
2021/10/04 04:43:14;;;;;;;3.85;3.20;;;13.70;99.90;;;;;;5031677;28;20025;-51
2021/10/04 04:45:39;;;;;;;6.45;3.20;;;13.70;99.90;;;;;;5031549;28;20033;-50
2021/10/04 04:48:05;;;;;;;3.88;3.03;;;13.70;99.90;;;;;;5030949;28;20049;-48
2021/10/04 04:50:31;;;;;;;3.20;3.00;;;13.70;99.90;;;;;;5031066;28;20482;-50
2021/10/04 04:52:58;;;;;;;3.35;2.90;;;13.70;99.90;;;;;;5031443;28;20028;-49
2021/10/04 04:55:23;;;;;;;3.40;3.10;;;13.60;99.90;;;;;;5029453;28;20029;-49
2021/10/04 04:57:49;;;;;;;6.35;4.95;;;13.60;99.90;;;;;;5030620;28;20479;-50
2021/10/04 05:00:15;;;;;;;3.50;3.20;;;13.60;99.90;;;;;;5031323;28;20032;-51
2021/10/04 05:02:45;;;;;;;3.60;3.30;;;13.60;99.90;;;;;;5030560;28;20465;-51
2021/10/04 05:05:12;;;;;;;4.05;3.15;;;13.50;99.90;;;;;;5031226;28;20021;-52
2021/10/04 05:07:38;;;;;;;4.97;3.35;;;13.50;99.90;;;;;;5030361;28;20032;-49
2021/10/04 05:10:06;;;;;;;3.92;3.53;;;13.50;99.90;;;;;;5031062;28;20248;-48
2021/10/04 05:12:32;;;;;;;4.80;3.28;;;13.50;99.90;;;;;;5030964;28;20091;-50
2021/10/04 05:14:57;;;;;;;5.45;4.00;;;13.60;99.90;;;;;;5031052;28;20482;-47
2021/10/04 05:17:23;;;;;;;7.10;3.50;;;13.60;99.90;;;;;;5030418;28;20458;-48
2021/10/04 05:19:48;;;;;;;5.40;3.55;;;13.60;99.90;;;;;;5030868;28;20030;-48
2021/10/04 05:22:14;;;;;;;4.93;2.97;;;13.60;99.90;;;;;;5030828;28;20391;-47
2021/10/04 05:24:40;;;;;;;5.63;3.00;;;13.60;99.90;;;;;;5030662;28;20113;-46
2021/10/04 05:27:05;;;;;;;4.45;3.00;;;13.60;99.90;;;;;;5029404;28;20429;-48
2021/10/04 05:29:31;;;;;;;6.80;2.58;;;13.60;99.90;;;;;;5030240;28;20026;-48
2021/10/04 05:31:56;;;;;;;4.97;2.50;;;13.60;99.90;;;;;;5030950;28;20018;-50
2021/10/04 05:34:22;;;;;;;3.55;2.95;;;13.60;99.90;;;;;;5030862;28;20079;-48
2021/10/04 05:36:47;;;;;;;3.45;2.70;;;13.60;99.90;;;;;;5029502;28;20098;-49
2021/10/04 05:39:13;;;;;;;6.72;3.28;;;13.50;99.90;;;;;;5029907;28;20034;-50
2021/10/04 05:41:39;;;;;;;4.82;2.90;;;13.60;99.90;;;;;;5030717;28;20133;-49
2021/10/04 05:44:05;;;;;;;2.75;2.55;;;13.50;99.90;;;;;;5030367;28;20509;-47
2021/10/04 05:46:30;;;;;;;9.15;4.03;;;13.50;99.90;;;;;;5062832;22;20548;-50
2021/10/04 05:48:56;;;;;;;4.03;3.63;;;13.40;99.90;;;;;;5050264;28;20021;-50
2021/10/04 05:51:21;;;;;;;3.67;3.15;;;13.50;99.90;;;;;;5050607;28;20100;-51
2021/10/04 05:53:48;;;;;;;4.28;2.95;;;13.40;99.90;;;;;;5049821;28;20061;-51
2021/10/04 05:56:13;;;;;;;3.80;3.22;;;13.40;99.90;;;;;;5051024;28;20517;-47
2021/10/04 05:58:39;;;;;;;5.25;3.42;;;13.40;99.90;;;;;;5050360;28;20025;-49
2021/10/04 06:01:05;;;;;;;4.40;3.03;;;13.40;99.90;;;;;;5050510;28;20028;-49
2021/10/04 06:03:31;;;;;;;4.55;3.10;;;13.30;99.90;;;;;;5050091;28;20429;-53
2021/10/04 06:05:56;;;;;;;4.32;3.00;;;13.30;99.90;;;;;;5050319;28;20453;-47
2021/10/04 06:08:22;;;;;;;4.07;2.85;;;13.30;99.90;;;;;;5031755;28;20021;-50
2021/10/04 06:10:48;;;;;;;4.72;3.20;;;13.30;99.90;;;;;;5032586;28;20060;-53
2021/10/04 06:13:13;;;;;;;4.35;2.55;;;13.20;99.90;;;;;;5050539;28;20029;-47
2021/10/04 06:15:39;;;;;;;3.00;2.30;;;13.20;99.90;;;;;;5053890;28;20029;-47
2021/10/04 06:18:05;;;;;;;3.42;2.67;;;13.20;99.90;;;;;;5053733;28;20104;-47
2021/10/04 06:20:30;;;;;;;5.15;2.30;;;13.20;99.90;;;;;;5051097;28;20048;-46
2021/10/04 06:22:56;;;;;;;4.43;2.33;;;13.30;99.90;;;;;;5045248;28;20033;-51
2021/10/04 06:25:22;;;;;;;2.28;2.17;;;13.30;99.90;;;;;;5034452;28;20021;-50
2021/10/04 06:27:50;;;;;;;2.60;2.20;;;13.30;99.90;;;;;;5047421;28;20449;-48
2021/10/04 06:30:17;;;;;;;2.83;1.90;;;13.40;99.90;;;;;;5054078;28;20036;-52
2021/10/04 06:32:43;;;;;;;1.90;1.52;;;13.40;99.90;;;;;;5052898;28;20028;-46
2021/10/04 06:35:09;;;;;;;3.40;1.80;;;13.40;99.90;;;;;;5052369;28;20039;-53
2021/10/04 06:37:35;;;;;;;1.65;1.55;;;13.50;99.90;;;;;;5051390;28;20021;-49
2021/10/04 06:40:00;;;;;;;1.90;1.80;;;13.40;99.90;;;;;;5053744;28;20033;-47
2021/10/04 06:42:26;;;;;;;2.70;1.70;;;13.40;99.90;;;;;;5054022;28;20075;-47
2021/10/04 06:44:53;;;;;;;1.77;1.67;;;13.50;99.90;;;;;;5053613;28;20029;-47
2021/10/04 06:47:19;;;;;;;2.38;1.67;;;13.60;99.90;;;;;;5052999;28;20021;-52
2021/10/04 06:49:44;;;;;;;1.50;1.40;;;13.50;99.90;;;;;;5053453;28;20124;-50
2021/10/04 06:52:10;;;;;;;1.70;1.48;;;13.50;99.90;;;;;;5053513;28;20021;-48
2021/10/04 06:54:36;;;;;;;2.17;1.90;;;13.50;99.90;;;;;;5053470;28;20428;-46
2021/10/04 06:57:02;;;;;;;1.95;1.85;;;13.50;99.90;;;;;;5035685;28;20445;-49
2021/10/04 06:59:27;;;;;;;3.13;2.47;;;13.50;99.90;;;;;;5035072;28;20406;-51
2021/10/04 07:01:53;;;;;;;4.88;1.70;;;13.50;99.90;;;;;;5053530;28;20052;-48
2021/10/04 07:04:18;;;;;;;5.80;2.63;;;13.50;99.90;;;;;;5053377;28;20044;-47
2021/10/04 07:06:44;;;;;;;3.67;1.98;;;13.50;99.90;;;;;;5053183;28;20325;-48
2021/10/04 07:09:09;;;;;;;4.05;2.80;;;13.50;99.90;;;;;;5052834;28;20100;-49
2021/10/04 07:11:35;;;;;;;4.35;2.20;;;13.50;99.90;;;;;;5053302;28;20021;-46
2021/10/04 07:14:00;;;;;;;4.00;2.72;;;13.40;99.90;;;;;;5053027;28;20402;-46
2021/10/04 07:16:26;;;;;;;3.22;2.40;;;13.30;99.90;;;;;;5053042;28;20076;-47
2021/10/04 07:18:51;;;;;;;6.65;2.88;;;13.30;99.90;;;;;;5052459;28;20021;-48
2021/10/04 07:21:17;;;;;;;2.55;2.33;;;13.20;99.90;;;;;;5035189;28;20021;-51
2021/10/04 07:23:46;;;;;;;4.10;2.95;;;13.20;99.90;;;;;;5052963;28;20029;-46
2021/10/04 07:26:12;;;;;;;3.88;3.40;;;13.10;99.90;;;;;;5052136;28;20024;-49
2021/10/04 07:28:38;;;;;;;4.13;2.58;;;13.10;99.90;;;;;;5052068;28;20056;-52
2021/10/04 07:31:03;;;;;;;4.88;3.78;;;13.10;99.90;;;;;;5034724;28;20052;-46
2021/10/04 07:33:29;;;;;;;4.63;3.80;;;13.10;99.90;;;;;;5052674;28;20449;-50
2021/10/04 07:35:55;;;;;;;6.57;3.38;;;13.10;99.90;;;;;;5052596;28;20518;-46
2021/10/04 07:38:22;;;;;;;4.63;3.70;;;13.20;99.90;;;;;;5052057;28;20029;-49
2021/10/04 07:40:48;;;;;;;4.07;3.47;;;13.20;99.90;;;;;;5051286;28;20086;-49
2021/10/04 07:43:14;;;;;;;4.82;3.28;;;13.20;99.90;;;;;;5043235;28;20029;-52
2021/10/04 07:45:39;;;;;;;6.40;3.10;;;13.40;99.90;;;;;;5042828;28;20037;-48
2021/10/04 07:48:05;;;;;;;4.65;3.17;;;13.50;99.90;;;;;;5047109;28;20029;-45
2021/10/04 07:50:31;;;;;;;3.83;3.35;;;13.50;99.90;;;;;;5037739;28;20034;-46
2021/10/04 07:52:57;;;;;;;8.40;3.97;;;13.60;99.90;;;;;;5044105;28;20027;-48
2021/10/04 07:55:23;;;;;;;5.82;3.53;;;13.70;99.90;;;;;;5040308;28;20096;-50
2021/10/04 07:57:49;;;;;;;5.18;3.63;;;13.70;99.90;;;;;;5023754;28;20087;-45
2021/10/04 08:00:17;;;;;;;6.32;4.85;;;13.70;99.90;;;;;;5044092;28;20032;-45
2021/10/04 08:02:42;;;;;;;4.70;4.30;;;13.80;99.90;;;;;;5048993;28;20079;-45
2021/10/04 08:05:09;;;;;;;4.85;4.38;;;13.80;99.90;;;;;;5039414;28;20026;-45
2021/10/04 08:07:35;;;;;;;13.43;4.47;;;13.70;99.90;;;;;;5035869;28;20066;-51
2021/10/04 08:10:00;;;;;;;5.57;5.07;;;13.70;99.90;;;;;;5050735;28;20040;-45
2021/10/04 08:12:27;;;;;;;5.97;5.07;;;13.70;99.90;;;;;;5040948;28;20028;-47
2021/10/04 08:14:53;;;;;;;6.30;5.80;;;13.70;99.90;;;;;;5046076;28;20660;-45
2021/10/04 08:17:19;;;;;;;6.50;6.00;;;13.80;99.90;;;;;;5032093;28;20033;-47
2021/10/04 08:19:45;;;;;;;9.30;5.07;;;13.80;99.90;;;;;;5040356;28;20021;-47
2021/10/04 08:22:10;;;;;;;6.78;5.47;;;13.80;99.90;;;;;;5052325;28;20033;-44
2021/10/04 08:24:36;;;;;;;6.78;6.18;;;13.80;99.90;;;;;;5052115;28;20027;-49
2021/10/04 08:27:02;;;;;;;5.78;5.28;;;13.80;99.90;;;;;;5052652;28;20029;-48
2021/10/04 08:29:27;;;;;;;11.10;6.97;;;13.80;99.90;;;;;;5051870;28;20110;-46
2021/10/04 08:31:53;;;;;;;7.68;6.93;;;13.80;99.90;;;;;;5051810;28;20017;-47
2021/10/04 08:34:18;;;;;;;13.73;7.15;;;13.90;99.90;;;;;;5051692;28;20021;-50
2021/10/04 08:36:44;;;;;;;8.80;7.90;;;13.80;99.90;;;;;;5041085;28;20088;-49
2021/10/04 08:39:09;;;;;;;9.80;7.88;;;13.90;99.90;;;;;;5041789;28;20041;-53
2021/10/04 08:41:37;;;;;;;9.55;8.57;;;13.90;99.90;;;;;;5032426;28;20040;-45
2021/10/04 08:44:06;;;;;;;8.73;7.75;;;14.00;99.90;;;;;;5037587;28;20025;-44
2021/10/04 08:46:37;;;;;;;15.80;12.32;;;13.90;99.90;;;;;;5030395;28;20029;-47
2021/10/04 08:49:03;;;;;;;11.73;9.80;;;13.90;99.90;;;;;;5041043;28;20060;-49
2021/10/04 08:51:28;;;;;;;8.75;7.85;;;13.90;99.90;;;;;;5048912;28;20064;-52
2021/10/04 08:53:54;;;;;;;8.20;7.40;;;13.90;99.90;;;;;;5042997;28;20040;-43
2021/10/04 08:56:19;;;;;;;9.20;6.82;;;13.90;99.90;;;;;;5051085;28;20028;-47
2021/10/04 08:58:51;;;;;;;9.02;7.00;;;14.00;99.90;;;;;;5086504;28;20386;-47
2021/10/04 09:01:22;;;;;;;9.25;7.15;;;14.00;99.90;;;;;;5085547;28;20028;-49
2021/10/04 09:03:49;;;;;;;6.88;6.20;;;14.00;99.90;;;;;;5086703;28;20024;-45
2021/10/04 09:06:26;;;;;;;8.10;5.93;;;14.00;99.90;;;;;;5067926;28;20390;-47
2021/10/04 09:09:03;;;;;;;7.70;6.85;;;14.00;99.90;;;;;;5067659;28;20482;-47
2021/10/04 09:11:28;;;;;;;10.65;6.65;;;14.00;99.90;;;;;;5062693;28;20024;-53
2021/10/04 09:13:54;;;;;;;9.65;8.63;;;13.90;99.90;;;;;;5049367;28;20029;-45
2021/10/04 09:16:20;;;;;;;9.57;8.30;;;13.90;99.90;;;;;;5067556;28;20060;-46
2021/10/04 09:18:45;;;;;;;15.35;8.52;;;13.80;99.90;;;;;;5067243;28;20031;-46
2021/10/04 09:21:11;;;;;;;10.80;8.80;;;13.80;99.90;;;;;;5063910;28;20060;-50
2021/10/04 09:23:43;;;;;;;9.25;7.85;;;13.80;99.90;;;;;;5058660;28;20248;-47
2021/10/04 09:26:10;;;;;;;8.27;7.47;;;13.80;99.90;;;;;;5046031;28;20064;-48
2021/10/04 09:28:44;;;;;;;7.88;7.07;;;13.90;99.90;;;;;;5047034;28;20513;-48
2021/10/04 09:31:28;;;;;;;7.75;6.95;;;14.00;99.90;;;;;;5047443;28;20570;-46
2021/10/04 09:34:03;;;;;;;6.65;5.35;;;14.10;99.90;;;;;;5064505;28;20146;-50
2021/10/04 09:36:46;;;;;;;6.95;6.00;;;14.10;99.90;;;;;;5067016;28;20021;-52
2021/10/04 09:39:16;;;;;;;7.68;5.53;;;14.20;99.90;;;;;;5050123;28;20108;-52
2021/10/04 09:42:21;;;;;;;7.95;5.22;;;14.30;99.90;;;;;;5047927;28;20293;-47
2021/10/04 09:44:56;;;;;;;7.20;5.20;;;14.30;99.90;;;;;;5065117;28;20032;-49
2021/10/04 09:47:36;;;;;;;4.35;4.00;;;14.30;99.90;;;;;;5066102;28;20024;-52
2021/10/04 09:50:11;;;;;;;5.00;4.20;;;14.20;99.90;;;;;;5056868;28;20028;-51
2021/10/04 09:52:47;;;;;;;12.48;5.10;;;14.20;99.90;;;;;;5068741;28;20055;-47
2021/10/04 09:55:14;;;;;;;6.60;5.70;;;14.20;99.90;;;;;;5066634;28;20025;-46
2021/10/04 09:57:39;;;;;;;6.95;6.25;;;14.20;99.90;;;;;;5065851;28;20051;-46
2021/10/04 10:00:06;;;;;;;6.30;5.80;;;14.20;99.90;;;;;;5054157;28;20508;-45
2021/10/04 10:02:32;;;;;;;6.07;5.43;;;14.20;99.90;;;;;;5052847;28;20406;-48
2021/10/04 10:04:58;;;;;;;7.25;6.65;;;14.20;99.90;;;;;;5047535;28;20025;-46
2021/10/04 10:07:23;;;;;;;7.47;6.78;;;14.20;99.90;;;;;;5066101;28;20595;-48
2021/10/04 10:09:49;;;;;;;8.90;8.10;;;14.40;99.90;;;;;;5055343;28;20116;-47
2021/10/04 10:12:15;;;;;;;8.95;8.05;;;14.40;99.90;;;;;;5052946;28;20029;-47
2021/10/04 10:14:49;;;;;;;10.18;8.27;;;14.40;99.90;;;;;;5053341;28;20044;-45
2021/10/04 10:17:18;;;;;;;8.27;7.47;;;14.40;99.90;;;;;;5050351;28;20516;-48
2021/10/04 10:19:47;;;;;;;12.65;9.27;;;14.30;99.90;;;;;;5052891;28;20037;-46
2021/10/04 10:22:17;;;;;;;8.77;7.82;;;14.40;99.90;;;;;;5041066;28;20520;-43
2021/10/04 10:24:43;;;;;;;6.97;6.38;;;14.40;99.90;;;;;;5035302;28;20029;-43
2021/10/04 10:27:10;;;;;;;7.22;6.32;;;14.40;99.90;;;;;;5047706;28;20555;-44
2021/10/04 10:29:36;;;;;;;8.02;6.07;;;14.50;99.90;;;;;;5032788;28;20426;-46
2021/10/04 10:32:01;;;;;;;7.20;6.43;;;14.50;99.90;;;;;;5033055;28;20036;-42
2021/10/04 10:34:29;;;;;;;7.80;7.00;;;14.60;99.90;;;;;;5032911;28;20053;-44
2021/10/04 10:36:58;;;;;;;7.93;6.63;;;14.70;99.90;;;;;;5037961;28;20083;-45
2021/10/04 10:39:53;;;;;;;8.82;7.95;;;14.70;99.90;;;;;;5047327;28;20362;-43
2021/10/04 10:42:35;;;;;;;10.88;7.47;;;14.80;99.90;;;;;;5032769;28;20383;-47
2021/10/04 10:45:00;;;;;;;8.20;6.95;;;14.80;99.90;;;;;;5032768;28;20036;-48
2021/10/04 10:47:35;;;;;;;9.75;8.02;;;14.80;99.90;;;;;;5031825;28;20100;-43
2021/10/04 10:50:13;;;;;;;8.17;5.97;;;14.80;99.90;;;;;;5032637;28;20103;-48
2021/10/04 10:52:47;;;;;;;6.53;5.93;;;14.80;99.90;;;;;;5032889;28;20322;-46
2021/10/04 10:55:18;;;;;;;7.38;5.18;;;14.80;99.90;;;;;;5032696;28;20061;-46
2021/10/04 10:57:56;;;;;;;5.25;4.85;;;14.80;99.90;;;;;;5032553;28;20487;-46
2021/10/04 11:00:50;;;;;;;5.05;4.65;;;14.80;99.90;;;;;;5032695;28;20364;-43
2021/10/04 11:03:19;;;;;;;4.85;4.35;;;14.80;99.90;;;;;;5032688;28;20033;-43
2021/10/04 11:05:55;;;;;;;4.72;3.95;;;14.90;99.90;;;;;;5032608;28;20076;-46
2021/10/04 11:08:45;;;;;;;7.40;4.32;;;15.10;99.90;;;;;;5032264;28;20099;-46
2021/10/04 11:11:17;;;;;;;4.40;4.10;;;15.10;99.90;;;;;;5032385;28;20040;-49
2021/10/04 11:14:09;;;;;;;6.28;4.03;;;15.20;99.90;;;;;;5032267;28;20018;-49
2021/10/04 11:16:40;;;;;;;3.72;3.53;;;15.20;99.90;;;;;;5032024;28;20036;-43
2021/10/04 11:19:07;;;;;;;4.18;3.88;;;15.30;99.90;;;;;;5031839;28;20049;-48
2021/10/04 11:21:34;;;;;;;4.57;4.13;;;15.30;99.90;;;;;;5030985;28;20017;-45
2021/10/04 11:24:06;;;;;;;7.35;4.35;;;15.50;99.90;;;;;;5032234;28;20022;-44
2021/10/04 11:26:34;;;;;;;6.60;4.47;;;15.50;99.90;;;;;;5032390;28;20029;-45
2021/10/04 11:29:02;;;;;;;4.53;4.13;;;15.50;99.90;;;;;;5031933;28;20109;-44
2021/10/04 11:31:30;;;;;;;3.53;3.22;;;15.50;99.90;;;;;;5031897;28;20033;-45
2021/10/04 11:34:23;;;;;;;4.18;3.80;;;15.60;99.90;;;;;;5032246;28;20025;-43
2021/10/04 11:36:58;;;;;;;3.80;3.55;;;15.60;99.90;;;;;;5030887;28;20518;-46
2021/10/04 11:39:29;;;;;;;3.65;3.35;;;15.70;99.90;;;;;;5031359;28;20033;-44
2021/10/04 11:42:15;;;;;;;3.10;2.50;;;15.70;99.90;;;;;;5031858;28;20029;-47
2021/10/04 11:47:22;;;;;;;2.38;2.17;;;15.60;99.90;;;;;;5026508;28;20438;-43
2021/10/04 11:49:53;;;;;;;3.08;1.80;;;15.60;99.90;;;;;;5013761;28;20045;-45
2021/10/04 11:52:20;;;;;;;2.00;1.80;;;15.60;99.90;;;;;;5031954;28;20049;-43
2021/10/04 11:54:45;;;;;;;2.03;1.92;;;15.60;99.90;;;;;;5031857;28;20392;-45
2021/10/04 11:57:20;;;;;;;1.52;1.40;;;15.60;99.90;;;;;;5031263;28;20033;-44
2021/10/04 11:59:58;;;;;;;1.70;1.65;;;15.60;99.90;;;;;;5031698;28;20026;-44
2021/10/04 12:02:25;;;;;;;4.03;1.50;;;15.70;99.90;;;;;;5031763;28;20049;-43
2021/10/04 12:04:51;;;;;;;1.20;1.20;;;15.70;99.90;;;;;;5031737;28;20104;-43
2021/10/04 12:07:20;;;;;;;2.35;2.15;;;15.80;99.90;;;;;;5030671;28;20472;-44
2021/10/04 12:09:54;;;;;;;7.90;1.42;;;15.80;99.90;;;;;;5031170;28;20455;-45
2021/10/04 12:12:20;;;;;;;1.95;1.35;;;15.80;99.90;;;;;;5031053;28;20045;-43
2021/10/04 12:14:49;;;;;;;4.50;1.13;;;15.90;99.90;;;;;;5013237;28;20072;-42
2021/10/04 12:17:15;;;;;;;3.00;1.08;;;15.90;99.90;;;;;;5030583;28;20026;-42
2021/10/04 12:19:44;;;;;;;2.13;1.10;;;16.00;99.90;;;;;;5030733;28;20104;-48
2021/10/04 12:22:09;;;;;;;1.10;1.10;;;15.90;99.90;;;;;;5029437;28;20029;-43
2021/10/04 12:24:41;;;;;;;0.82;0.82;;;15.80;99.90;;;;;;5013488;28;20025;-46
2021/10/04 12:27:15;;;;;;;0.85;0.85;;;15.70;99.90;;;;;;5030685;28;20049;-47
2021/10/04 12:29:46;;;;;;;1.10;1.10;;;15.70;99.90;;;;;;5030322;28;20048;-46
2021/10/04 12:32:31;;;;;;;4.85;1.48;;;15.80;99.90;;;;;;5030441;28;20026;-42
2021/10/04 12:35:12;;;;;;;1.33;1.20;;;15.70;99.90;;;;;;5013049;28;20025;-45
2021/10/04 12:37:43;;;;;;;2.42;1.70;;;15.60;99.90;;;;;;5029877;28;20316;-46
2021/10/04 12:40:23;;;;;;;5.43;1.38;;;15.60;99.90;;;;;;5030492;28;20036;-44
2021/10/04 12:42:51;;;;;;;12.55;1.20;;;15.60;99.90;;;;;;5013302;28;20033;-47
2021/10/04 12:45:17;;;;;;;0.88;0.88;;;15.50;99.90;;;;;;5030629;28;20435;-43
2021/10/04 12:48:05;;;;;;;0.80;0.80;;;15.40;99.90;;;;;;5033540;28;20088;-44
2021/10/04 12:50:35;;;;;;;1.40;1.30;;;15.50;99.90;;;;;;5015549;28;20072;-42